Time;durP1;ratioP1;P1;durP2;ratioP2;P2;SDS_P1;SDS_P2;PMS_P1;PMS_P2;Temp;Humidity;BMP_temperature;BMP_pressure;BME280_temperature;BME280_humidity;BME280_pressure;Samples;Min_cycle;Max_cycle;Signal;HPM_P1;HPM_P2
2023/03/02 00:01:22;;;;;;;2.90;1.23;;;;;;;-142.70;100.00;60390.16;4927474;29;20020;-78
2023/03/02 00:03:47;;;;;;;1.17;1.08;;;;;;;-142.70;100.00;60390.16;4909286;28;20409;-78
2023/03/02 00:06:13;;;;;;;1.63;1.23;;;;;;;-142.70;100.00;60390.16;4924371;29;20032;-78
2023/03/02 00:08:38;;;;;;;1.55;1.45;;;;;;;-142.70;100.00;60390.16;4920852;29;20580;-78
2023/03/02 00:11:04;;;;;;;1.42;1.20;;;;;;;-142.70;100.00;60390.16;4927100;29;20054;-79
2023/03/02 00:13:30;;;;;;;1.40;1.20;;;;;;;-142.70;100.00;60390.16;4925955;29;20043;-78
2023/03/02 00:15:56;;;;;;;1.88;1.73;;;;;;;-142.70;100.00;60390.16;4941763;28;20533;-79
2023/03/02 00:18:21;;;;;;;1.00;0.90;;;;;;;-142.70;100.00;60390.16;4920990;29;20023;-79
2023/03/02 00:20:46;;;;;;;2.85;1.88;;;;;;;-142.70;100.00;60390.16;4947793;28;20035;-78
2023/03/02 00:23:12;;;;;;;2.28;1.95;;;;;;;-142.70;100.00;60390.16;4945022;28;20035;-78
2023/03/02 00:25:39;;;;;;;2.10;1.90;;;;;;;-142.70;100.00;60390.16;4945426;28;20035;-79
2023/03/02 00:28:04;;;;;;;0.57;0.57;;;;;;;-142.70;100.00;60390.16;4927360;29;20114;-78
2023/03/02 00:30:29;;;;;;;0.40;0.40;;;;;;;-142.70;100.00;60390.16;4936955;28;20038;-78
2023/03/02 00:32:57;;;;;;;0.30;0.20;;;;;;;-142.70;100.00;60390.16;4911519;29;20478;-79
2023/03/02 00:35:23;;;;;;;0.30;0.30;;;;;;;-142.70;100.00;60390.16;4927324;29;20102;-78
2023/03/02 00:37:48;;;;;;;1.85;0.20;;;;;;;-142.70;100.00;60390.16;4943353;28;20131;-78
2023/03/02 00:40:14;;;;;;;0.20;0.20;;;;;;;-142.70;100.00;60390.16;4944867;28;20031;-79
2023/03/02 00:42:39;;;;;;;0.20;0.20;;;;;;;-142.70;100.00;60390.16;4929347;29;20031;-79
2023/03/02 00:45:05;;;;;;;0.63;0.30;;;;;;;-142.70;100.00;60390.16;4946757;28;20031;-79
2023/03/02 00:47:35;;;;;;;0.32;0.20;;;;;;;-142.70;100.00;60390.16;4931467;29;20035;-78
2023/03/02 00:50:00;;;;;;;0.20;0.20;;;;;;;-142.70;100.00;60390.16;4927076;29;20042;-78
2023/03/02 00:52:28;;;;;;;0.22;0.22;;;;;;;-142.70;100.00;60390.16;4945727;28;20110;-78
2023/03/02 00:54:53;;;;;;;0.63;0.30;;;;;;;-142.70;100.00;60390.16;4927877;29;20031;-79
2023/03/02 00:57:19;;;;;;;0.40;0.30;;;;;;;-142.70;100.00;60390.16;4945500;28;20465;-78
2023/03/02 00:59:44;;;;;;;0.50;0.40;;;;;;;-142.70;100.00;60390.16;4945291;28;20039;-78
2023/03/02 01:02:10;;;;;;;0.40;0.30;;;;;;;-142.70;100.00;60390.16;4925954;28;20120;-78
2023/03/02 01:04:38;;;;;;;0.30;0.30;;;;;;;-142.70;100.00;60390.16;4950384;28;20886;-78
2023/03/02 01:07:07;;;;;;;1.87;0.70;;;;;;;-142.70;100.00;60390.16;4918894;29;20048;-78
2023/03/02 01:09:32;;;;;;;0.88;0.70;;;;;;;-142.70;100.00;60390.16;4928171;29;21197;-79
2023/03/02 01:11:58;;;;;;;0.93;0.73;;;;;;;-142.70;100.00;60390.16;4922613;29;20035;-79
2023/03/02 01:14:25;;;;;;;0.30;0.30;;;;;;;-142.70;100.00;60390.16;4914816;29;20027;-79
2023/03/02 01:16:50;;;;;;;0.68;0.40;;;;;;;-142.70;100.00;60390.16;4920476;29;20087;-79
2023/03/02 01:19:16;;;;;;;1.10;0.88;;;;;;;-142.70;100.00;60390.16;4946484;28;20106;-79
2023/03/02 01:21:42;;;;;;;1.38;1.27;;;;;;;-142.70;100.00;60390.16;4946138;28;20055;-79
2023/03/02 01:24:08;;;;;;;1.35;1.10;;;;;;;-142.70;100.00;60390.16;4916727;28;20032;-80
2023/03/02 01:26:34;;;;;;;1.42;0.90;;;;;;;-142.70;100.00;60390.16;4932516;29;20051;-78
2023/03/02 01:28:59;;;;;;;1.33;0.82;;;;;;;-142.70;100.00;60390.16;4944184;28;20083;-79
2023/03/02 01:31:26;;;;;;;1.13;0.80;;;;;;;-142.70;100.00;60390.16;4928109;29;20028;-79
2023/03/02 01:33:51;;;;;;;1.50;0.85;;;;;;;-142.70;100.00;60390.16;4918781;29;20040;-79
2023/03/02 01:36:17;;;;;;;1.10;1.00;;;;;;;-142.70;100.00;60390.16;4924848;29;20427;-80
2023/03/02 01:38:44;;;;;;;1.27;1.08;;;;;;;-142.70;100.00;60390.16;4919895;29;20020;-79
2023/03/02 01:41:10;;;;;;;0.88;0.60;;;;;;;-142.70;100.00;60390.16;4942149;28;20047;-79
2023/03/02 01:43:35;;;;;;;1.23;0.60;;;;;;;-142.70;100.00;60390.16;4943886;28;20106;-78
2023/03/02 01:46:13;;;;;;;0.93;0.60;;;;;;;-142.70;100.00;60390.16;4920078;29;20043;-78
2023/03/02 01:48:57;;;;;;;0.98;0.65;;;;;;;-142.70;100.00;60390.16;4924625;28;20815;-79
2023/03/02 01:51:25;;;;;;;0.65;0.45;;;;;;;-142.70;100.00;60390.16;4916044;29;20772;-77
2023/03/02 01:53:55;;;;;;;0.50;0.30;;;;;;;-142.70;100.00;60390.16;4924541;28;20020;-78
2023/03/02 01:56:33;;;;;;;0.28;0.20;;;;;;;-142.70;100.00;60390.16;4909730;29;20031;-79
2023/03/02 01:59:01;;;;;;;0.10;0.10;;;;;;;-142.70;100.00;60390.16;4921478;28;20501;-79
2023/03/02 02:01:32;;;;;;;0.50;0.20;;;;;;;-142.70;100.00;60390.16;4917551;29;20050;-78
2023/03/02 02:03:57;;;;;;;0.20;0.20;;;;;;;-142.70;100.00;60390.16;4929414;28;20584;-79
2023/03/02 02:06:39;;;;;;;0.43;0.40;;;;;;;-142.70;100.00;60390.16;4940766;29;20169;-79
2023/03/02 02:09:08;;;;;;;0.17;0.17;;;;;;;-142.70;100.00;60390.16;4923447;28;20906;-78
2023/03/02 02:11:33;;;;;;;0.10;0.10;;;;;;;-142.70;100.00;60390.16;4929804;29;20059;-78
2023/03/02 02:14:01;;;;;;;0.20;0.20;;;;;;;-142.70;100.00;60390.16;4931712;28;20539;-79
2023/03/02 02:16:27;;;;;;;0.30;0.20;;;;;;;-142.70;100.00;60390.16;4924232;29;20103;-78
2023/03/02 02:18:52;;;;;;;0.20;0.20;;;;;;;-142.70;100.00;60390.16;4939736;28;20035;-77
2023/03/02 02:21:18;;;;;;;0.45;0.20;;;;;;;-142.70;100.00;60390.16;4928575;29;20035;-78
2023/03/02 02:24:05;;;;;;;0.15;0.15;;;;;;;-142.70;100.00;60390.16;4940511;28;20023;-78
2023/03/02 02:26:30;;;;;;;0.10;0.10;;;;;;;-142.70;100.00;60390.16;4934138;28;20516;-78
2023/03/02 02:28:59;;;;;;;1.55;0.30;;;;;;;-142.70;100.00;60390.16;4940071;29;20066;-79
2023/03/02 02:31:38;;;;;;;0.30;0.20;;;;;;;-142.70;100.00;60390.16;4959380;28;20137;-78
2023/03/02 02:34:10;;;;;;;0.77;0.50;;;;;;;-142.70;100.00;60390.16;4928679;29;20023;-78
2023/03/02 02:36:40;;;;;;;1.02;0.52;;;;;;;-142.70;100.00;60390.16;4930141;28;20090;-78
2023/03/02 02:39:07;;;;;;;0.50;0.45;;;;;;;-142.70;100.00;60390.16;4914515;29;20580;-78
2023/03/02 02:41:36;;;;;;;1.85;0.40;;;;;;;-142.70;100.00;60390.16;4910881;29;20131;-77
2023/03/02 02:44:02;;;;;;;0.40;0.40;;;;;;;-142.70;100.00;60390.16;4915339;29;20421;-77
2023/03/02 02:46:28;;;;;;;0.38;0.38;;;;;;;-142.70;100.00;60390.16;4938574;28;20034;-77
2023/03/02 02:48:53;;;;;;;1.30;0.50;;;;;;;-142.70;100.00;60390.16;4929029;29;20023;-77
2023/03/02 02:51:26;;;;;;;0.50;0.40;;;;;;;-142.70;100.00;60390.16;4944757;28;20028;-78
2023/03/02 02:53:59;;;;;;;0.43;0.40;;;;;;;-142.70;100.00;60390.16;4925419;28;20101;-77
2023/03/02 02:56:33;;;;;;;0.68;0.22;;;;;;;-142.70;100.00;60390.16;4908070;29;20117;-77
2023/03/02 02:59:11;;;;;;;0.70;0.57;;;;;;;-142.70;100.00;60390.16;4920657;29;20031;-78
2023/03/02 03:01:37;;;;;;;0.35;0.35;;;;;;;-142.70;100.00;60390.16;4927576;29;20027;-77
2023/03/02 03:04:04;;;;;;;0.65;0.50;;;;;;;-142.70;100.00;60390.16;4926360;28;20026;-77
2023/03/02 03:06:41;;;;;;;0.57;0.55;;;;;;;-142.70;100.00;60390.16;4927792;29;20118;-77
2023/03/02 03:09:07;;;;;;;0.82;0.70;;;;;;;-142.70;100.00;60390.16;4928627;28;20564;-77
2023/03/02 03:11:35;;;;;;;0.80;0.80;;;;;;;-142.70;100.00;60390.16;4928958;29;20046;-78
2023/03/02 03:14:07;;;;;;;0.98;0.30;;;;;;;-142.70;100.00;60390.16;4937677;28;20035;-79
2023/03/02 03:16:34;;;;;;;0.50;0.50;;;;;;;-142.70;100.00;60390.16;4950672;28;20448;-79
2023/03/02 03:19:11;;;;;;;0.50;0.50;;;;;;;-142.70;100.00;60390.16;4935886;28;20031;-79
2023/03/02 03:21:36;;;;;;;2.05;0.35;;;;;;;-142.70;100.00;60390.16;4932382;29;20031;-80
2023/03/02 03:24:01;;;;;;;0.55;0.55;;;;;;;-142.70;100.00;60390.16;4950283;29;20050;-78
2023/03/02 03:26:27;;;;;;;0.73;0.57;;;;;;;-142.70;100.00;60390.16;4927240;29;20044;-80
2023/03/02 03:28:56;;;;;;;0.60;0.60;;;;;;;-142.70;100.00;60390.16;4942648;28;20038;-80
2023/03/02 03:31:22;;;;;;;0.60;0.60;;;;;;;-142.70;100.00;60390.16;4935380;29;20622;-79
2023/03/02 03:33:48;;;;;;;2.83;1.05;;;;;;;-142.70;100.00;60390.16;4950012;28;20112;-79
2023/03/02 03:36:13;;;;;;;1.45;1.05;;;;;;;-142.70;100.00;60390.16;4934048;29;20035;-80
2023/03/02 03:38:39;;;;;;;2.10;1.90;;;;;;;-142.70;100.00;60390.16;4950068;28;20035;-79
2023/03/02 03:41:04;;;;;;;1.50;1.40;;;;;;;-142.70;100.00;60390.16;4946713;28;20043;-80
2023/03/02 03:43:30;;;;;;;2.03;1.85;;;;;;;-142.70;100.00;60390.16;4927255;28;20487;-78
2023/03/02 03:45:55;;;;;;;1.70;1.60;;;;;;;-142.70;100.00;60390.16;4934083;28;20035;-79
2023/03/02 03:48:20;;;;;;;1.40;1.30;;;;;;;-142.70;100.00;60390.16;4945529;28;20027;-78
2023/03/02 03:50:46;;;;;;;1.40;1.30;;;;;;;-142.70;100.00;60390.16;4939653;28;20398;-78
2023/03/02 03:53:11;;;;;;;1.20;1.10;;;;;;;-142.70;100.00;60390.16;4937484;28;20871;-77
2023/03/02 03:55:37;;;;;;;1.63;1.10;;;;;;;-142.70;100.00;60390.16;4935449;28;20145;-78
2023/03/02 03:58:02;;;;;;;0.80;0.80;;;;;;;-142.70;100.00;60390.16;4964193;28;20030;-78
2023/03/02 04:00:27;;;;;;;1.05;0.98;;;;;;;-142.70;100.00;60390.16;4932596;28;20028;-78
2023/03/02 04:02:53;;;;;;;1.08;0.98;;;;;;;-142.70;100.00;60390.16;4937438;28;20020;-78
2023/03/02 04:05:19;;;;;;;1.90;1.00;;;;;;;-142.70;100.00;60390.16;4921839;29;20039;-78
2023/03/02 04:07:44;;;;;;;1.50;1.05;;;;;;;-142.70;100.00;60390.16;4944784;28;20038;-78
2023/03/02 04:10:11;;;;;;;1.42;1.33;;;;;;;-142.70;100.00;60390.16;4916795;29;20035;-78
2023/03/02 04:12:38;;;;;;;0.90;0.90;;;;;;;-142.70;100.00;60390.16;4946184;28;20520;-78
2023/03/02 04:15:06;;;;;;;1.55;1.45;;;;;;;-142.70;100.00;60390.16;4955904;28;20067;-78
2023/03/02 04:17:31;;;;;;;1.13;1.10;;;;;;;-142.70;100.00;60390.16;4927992;28;20073;-79
2023/03/02 04:19:58;;;;;;;1.10;1.00;;;;;;;-142.70;100.00;60390.16;4928571;29;20054;-78
2023/03/02 04:22:24;;;;;;;1.00;0.93;;;;;;;-142.70;100.00;60390.16;4926046;28;20090;-78
2023/03/02 04:24:49;;;;;;;1.55;0.93;;;;;;;-142.70;100.00;60390.16;4943752;28;20441;-78
2023/03/02 04:27:15;;;;;;;0.93;0.93;;;;;;;-142.70;100.00;60390.16;4926387;29;20058;-78
2023/03/02 04:29:43;;;;;;;0.90;0.80;;;;;;;-142.70;100.00;60390.16;4943631;28;20031;-78
2023/03/02 04:32:09;;;;;;;0.95;0.77;;;;;;;-142.70;100.00;60390.16;4930927;29;20117;-79
2023/03/02 04:34:34;;;;;;;1.77;0.80;;;;;;;-142.70;100.00;60390.16;4957070;28;20061;-79
2023/03/02 04:37:00;;;;;;;0.80;0.80;;;;;;;-142.70;100.00;60390.16;4934746;29;20019;-79
2023/03/02 04:39:26;;;;;;;1.30;1.20;;;;;;;-142.70;100.00;60390.16;4951356;29;20395;-80
2023/03/02 04:41:52;;;;;;;1.50;0.93;;;;;;;-142.70;100.00;60390.16;4934640;29;20035;-80
2023/03/02 04:44:18;;;;;;;0.90;0.90;;;;;;;-142.70;100.00;60390.16;4933337;29;20103;-79
2023/03/02 04:46:44;;;;;;;2.33;1.10;;;;;;;-142.70;100.00;60390.16;4932484;28;20038;-79
2023/03/02 04:49:10;;;;;;;0.80;0.80;;;;;;;-142.70;100.00;60390.16;4949792;28;20012;-79
2023/03/02 04:51:37;;;;;;;0.80;0.80;;;;;;;-142.70;100.00;60390.16;4913100;29;20042;-79
2023/03/02 04:54:10;;;;;;;0.90;0.90;;;;;;;-142.70;100.00;60390.16;4950817;28;20023;-79
2023/03/02 04:56:35;;;;;;;0.80;0.70;;;;;;;-142.70;100.00;60390.16;4935210;29;20090;-79
2023/03/02 04:59:01;;;;;;;0.57;0.50;;;;;;;-142.70;100.00;60390.16;4922591;29;20425;-79
2023/03/02 05:01:26;;;;;;;1.00;0.90;;;;;;;-142.70;100.00;60390.16;4938202;29;20047;-79
2023/03/02 05:03:52;;;;;;;0.65;0.65;;;;;;;-142.70;100.00;60390.16;4960042;28;20119;-80
2023/03/02 05:06:17;;;;;;;0.90;0.80;;;;;;;-142.70;100.00;60390.16;4935949;29;20090;-79
2023/03/02 05:08:44;;;;;;;1.10;1.00;;;;;;;-142.70;100.00;60390.16;4957403;28;20038;-80
2023/03/02 05:11:14;;;;;;;0.60;0.60;;;;;;;-142.70;100.00;60390.16;4932127;29;20094;-80
2023/03/02 05:13:40;;;;;;;0.70;0.70;;;;;;;-142.70;100.00;60390.16;4928756;29;20109;-79
2023/03/02 05:16:05;;;;;;;0.98;0.93;;;;;;;-142.70;100.00;60390.16;4951424;29;20110;-79
2023/03/02 05:18:31;;;;;;;0.80;0.80;;;;;;;-142.70;100.00;60390.16;4929283;29;20039;-77
2023/03/02 05:20:56;;;;;;;1.10;1.00;;;;;;;-142.70;100.00;60390.16;4925164;29;20051;-78
2023/03/02 05:23:26;;;;;;;0.75;0.70;;;;;;;-142.70;100.00;60390.16;4926682;29;20505;-78
2023/03/02 05:25:55;;;;;;;;;;;;;;;-142.70;100.00;60390.16;4926594;29;20086;-77
2023/03/02 05:28:22;;;;;;;2.10;1.07;;;;;;;-142.70;100.00;60390.16;4926669;29;19965;-78
2023/03/02 05:30:48;;;;;;;0.70;0.70;;;;;;;-142.70;100.00;60390.16;4927668;29;20483;-78
2023/03/02 05:33:14;;;;;;;1.30;0.93;;;;;;;-142.70;100.00;60390.16;4927936;28;20023;-80
2023/03/02 05:35:40;;;;;;;1.08;0.88;;;;;;;-142.70;100.00;60390.16;4928503;29;20038;-79
2023/03/02 05:38:05;;;;;;;0.70;0.70;;;;;;;-142.70;100.00;60390.16;4917805;29;20409;-79
2023/03/02 05:40:31;;;;;;;1.10;1.00;;;;;;;-142.70;100.00;60390.16;4950252;28;20482;-78
2023/03/02 05:42:57;;;;;;;1.08;0.98;;;;;;;-142.70;100.00;60390.16;4949277;29;20034;-79
2023/03/02 05:45:42;;;;;;;0.80;0.80;;;;;;;-142.70;100.00;60390.16;4932907;28;20027;-79
2023/03/02 05:48:09;;;;;;;0.90;0.90;;;;;;;-142.70;100.00;60390.16;4911307;29;20047;-78
2023/03/02 05:50:35;;;;;;;1.45;1.35;;;;;;;-142.70;100.00;60390.16;4927857;28;20082;-79
2023/03/02 05:53:01;;;;;;;1.85;1.65;;;;;;;-142.70;100.00;60390.16;4915466;29;20035;-79
2023/03/02 05:55:27;;;;;;;1.90;1.80;;;;;;;-142.70;100.00;60390.16;4941165;28;20024;-78
2023/03/02 05:57:52;;;;;;;2.08;1.88;;;;;;;-142.70;100.00;60390.16;4946065;28;20094;-78
2023/03/02 06:00:18;;;;;;;2.20;2.00;;;;;;;-142.70;100.00;60390.16;4930419;29;20553;-77
2023/03/02 06:02:44;;;;;;;2.47;2.28;;;;;;;-142.70;100.00;60390.16;4914204;28;20027;-78
2023/03/02 06:05:15;;;;;;;2.63;2.10;;;;;;;-142.70;100.00;60390.16;4946770;28;20030;-78
2023/03/02 06:07:40;;;;;;;1.92;1.40;;;;;;;-142.70;100.00;60390.16;4929225;29;20066;-77
2023/03/02 06:10:09;;;;;;;1.65;1.55;;;;;;;-142.70;100.00;60390.16;4949688;28;20066;-78
2023/03/02 06:12:35;;;;;;;1.52;1.35;;;;;;;-142.70;100.00;60390.16;4931184;29;20037;-78
2023/03/02 06:15:00;;;;;;;1.98;1.88;;;;;;;-142.70;100.00;60390.16;4931434;29;20102;-78
2023/03/02 06:17:26;;;;;;;1.75;1.60;;;;;;;-142.70;100.00;60390.16;4931671;29;20620;-80
2023/03/02 06:19:51;;;;;;;1.48;1.38;;;;;;;-142.70;100.00;60390.16;4933098;29;20082;-79
2023/03/02 06:22:17;;;;;;;1.65;1.30;;;;;;;-142.70;100.00;60390.16;4975913;28;20031;-82
2023/03/02 06:24:42;;;;;;;1.60;1.40;;;;;;;-142.70;100.00;60390.16;4950669;29;20035;-80
2023/03/02 06:27:08;;;;;;;1.75;1.65;;;;;;;-142.70;100.00;60390.16;4955306;28;20047;-77
2023/03/02 06:29:33;;;;;;;1.42;1.33;;;;;;;-142.70;100.00;60390.16;4927632;29;20110;-77
2023/03/02 06:31:59;;;;;;;1.50;1.40;;;;;;;-142.70;100.00;60390.16;4943907;28;20043;-78
2023/03/02 06:34:24;;;;;;;1.58;1.40;;;;;;;-142.70;100.00;60390.16;4947107;28;20028;-77
2023/03/02 06:36:50;;;;;;;1.02;0.93;;;;;;;-142.70;100.00;60390.16;4931018;29;20027;-78
2023/03/02 06:39:15;;;;;;;0.60;0.60;;;;;;;-142.70;100.00;60390.16;4928699;29;20061;-78
2023/03/02 06:41:44;;;;;;;0.88;0.68;;;;;;;-142.70;100.00;60390.16;4929906;29;20063;-78
2023/03/02 06:44:10;;;;;;;0.98;0.70;;;;;;;-142.70;100.00;60390.16;4922355;28;20047;-78
2023/03/02 06:46:37;;;;;;;0.95;0.77;;;;;;;-142.70;100.00;60390.16;4949934;28;20046;-80
2023/03/02 06:49:02;;;;;;;0.68;0.68;;;;;;;-142.70;100.00;60390.16;4950029;28;20519;-79
2023/03/02 06:51:28;;;;;;;1.30;1.20;;;;;;;-142.70;100.00;60390.16;4924833;29;20031;-81
2023/03/02 06:53:53;;;;;;;0.93;0.93;;;;;;;-142.70;100.00;60390.16;4944680;29;20031;-79
2023/03/02 06:56:19;;;;;;;1.40;1.30;;;;;;;-142.70;100.00;60390.16;4961265;29;20042;-80
2023/03/02 06:58:44;;;;;;;1.45;1.35;;;;;;;-142.70;100.00;60390.16;4961309;29;20405;-79
2023/03/02 07:01:10;;;;;;;1.33;1.23;;;;;;;-142.70;100.00;60390.16;4941699;29;20027;-79
2023/03/02 07:03:35;;;;;;;1.50;1.40;;;;;;;-142.70;100.00;60390.16;4933038;29;20043;-79
2023/03/02 07:06:01;;;;;;;1.75;1.30;;;;;;;-142.70;100.00;60390.16;4951888;29;20448;-80
2023/03/02 07:08:26;;;;;;;1.40;1.30;;;;;;;-142.70;100.00;60390.16;4955202;28;20553;-80
2023/03/02 07:10:52;;;;;;;1.45;1.35;;;;;;;-142.70;100.00;60390.16;4939165;28;20105;-79
2023/03/02 07:13:17;;;;;;;1.60;1.42;;;;;;;-142.70;100.00;60390.16;4952578;29;20433;-79
2023/03/02 07:15:43;;;;;;;3.80;1.70;;;;;;;-142.70;100.00;60390.16;4936991;28;20031;-79
2023/03/02 07:18:08;;;;;;;1.23;1.02;;;;;;;-142.70;100.00;60390.16;4939222;29;20070;-78
2023/03/02 07:20:34;;;;;;;1.42;1.33;;;;;;;-142.70;100.00;60390.16;4944956;28;20051;-78
2023/03/02 07:22:59;;;;;;;7.72;1.50;;;;;;;-142.70;100.00;60390.16;4924577;29;20490;-79
2023/03/02 07:25:25;;;;;;;1.10;1.00;;;;;;;-142.70;100.00;60390.16;4929338;29;20488;-78
2023/03/02 07:27:50;;;;;;;1.17;1.08;;;;;;;-142.70;100.00;60390.16;4928839;29;20039;-78
2023/03/02 07:30:19;;;;;;;1.00;0.90;;;;;;;-142.70;100.00;60390.16;4929367;29;20026;-79
2023/03/02 07:32:45;;;;;;;2.00;0.70;;;;;;;-142.70;100.00;60390.16;4935026;29;20051;-78
2023/03/02 07:35:11;;;;;;;1.60;0.88;;;;;;;-142.70;100.00;60390.16;4926030;29;20593;-79
2023/03/02 07:37:36;;;;;;;0.70;0.70;;;;;;;-142.70;100.00;60390.16;4925417;29;20061;-79
2023/03/02 07:40:03;;;;;;;1.05;1.00;;;;;;;-142.70;100.00;60390.16;4946920;28;20035;-79
2023/03/02 07:42:28;;;;;;;1.38;1.27;;;;;;;-142.70;100.00;60390.16;4927792;29;20031;-80
2023/03/02 07:44:54;;;;;;;1.10;0.80;;;;;;;-142.70;100.00;60390.16;4938912;29;20031;-80
2023/03/02 07:47:20;;;;;;;0.70;0.70;;;;;;;-142.70;100.00;60390.16;4947806;28;20026;-80
2023/03/02 07:49:45;;;;;;;1.38;1.27;;;;;;;-142.70;100.00;60390.16;4952385;29;20034;-80
2023/03/02 07:52:10;;;;;;;0.85;0.85;;;;;;;-142.70;100.00;60390.16;4930958;29;20035;-81
2023/03/02 07:54:36;;;;;;;1.58;0.70;;;;;;;-142.70;100.00;60390.16;4951119;29;20046;-82
2023/03/02 07:57:01;;;;;;;1.13;0.80;;;;;;;-142.70;100.00;60390.16;4947707;29;20110;-80
2023/03/02 07:59:28;;;;;;;1.05;1.00;;;;;;;-142.70;100.00;60390.16;4946420;29;20520;-80
2023/03/02 08:01:53;;;;;;;1.00;0.90;;;;;;;-142.70;100.00;60390.16;4945548;28;20737;-80
2023/03/02 08:04:19;;;;;;;0.77;0.73;;;;;;;-142.70;100.00;60390.16;4947271;29;20035;-80
2023/03/02 08:06:44;;;;;;;1.00;0.82;;;;;;;-142.70;100.00;60390.16;4944835;29;20028;-81
2023/03/02 08:09:09;;;;;;;1.10;1.05;;;;;;;-142.70;100.00;60390.16;4944563;29;20027;-80
2023/03/02 08:11:35;;;;;;;1.20;1.08;;;;;;;-142.70;100.00;60390.16;4939708;29;20028;-80
2023/03/02 08:14:02;;;;;;;1.10;1.02;;;;;;;-142.70;100.00;60390.16;4941955;29;20038;-80
2023/03/02 08:16:28;;;;;;;1.35;1.25;;;;;;;-142.70;100.00;60390.16;4936396;29;20087;-79
2023/03/02 08:18:53;;;;;;;1.30;1.20;;;;;;;-142.70;100.00;60390.16;4950097;28;20046;-80
2023/03/02 08:21:21;;;;;;;1.33;0.88;;;;;;;-142.70;100.00;60390.16;4965973;28;20012;-79
2023/03/02 08:23:47;;;;;;;1.40;1.30;;;;;;;-142.70;100.00;60390.16;4951027;29;20027;-81
2023/03/02 08:26:13;;;;;;;1.60;1.50;;;;;;;-142.70;100.00;60390.16;4952172;28;20047;-83
2023/03/02 08:28:39;;;;;;;1.30;1.20;;;;;;;-142.70;100.00;60390.16;4953716;29;20582;-81
2023/03/02 08:31:05;;;;;;;1.75;1.23;;;;;;;-142.70;100.00;60390.16;4967863;29;20035;-80
2023/03/02 08:33:31;;;;;;;1.23;1.13;;;;;;;-142.70;100.00;60390.16;4931984;28;20054;-80
2023/03/02 08:38:30;;;;;;;1.50;1.40;;;;;;;-142.70;100.00;60390.16;4966265;28;20042;-82
2023/03/02 08:40:56;;;;;;;1.38;1.27;;;;;;;-142.70;100.00;60390.16;4965304;28;20061;-82
2023/03/02 08:43:23;;;;;;;1.70;1.60;;;;;;;-142.70;100.00;60390.16;4988254;28;20035;-81
2023/03/02 08:45:53;;;;;;;1.30;1.20;;;;;;;-142.70;100.00;60390.16;4943622;28;20031;-81
2023/03/02 08:48:20;;;;;;;1.42;1.33;;;;;;;-142.70;100.00;60390.16;4947876;29;20030;-81
2023/03/02 08:51:03;;;;;;;1.52;1.35;;;;;;;-142.70;100.00;60390.16;4942017;28;20115;-81
2023/03/02 08:53:31;;;;;;;1.85;1.58;;;;;;;-142.70;100.00;60390.16;4960520;28;20118;-78
2023/03/02 08:55:57;;;;;;;1.75;1.65;;;;;;;-142.70;100.00;60390.16;4958667;28;20027;-79
2023/03/02 08:58:22;;;;;;;1.35;1.25;;;;;;;-142.70;100.00;60390.16;4960094;28;20041;-79
2023/03/02 09:00:48;;;;;;;1.38;1.23;;;;;;;-142.70;100.00;60390.16;4967765;28;20035;-79
2023/03/02 09:03:13;;;;;;;1.80;1.60;;;;;;;-142.70;100.00;60390.16;4947171;28;20030;-78
2023/03/02 09:05:39;;;;;;;1.40;1.30;;;;;;;-142.70;100.00;60390.16;4971515;28;20031;-78
2023/03/02 09:08:05;;;;;;;2.35;1.60;;;;;;;-142.70;100.00;60390.16;4920043;29;20043;-81
2023/03/02 09:10:30;;;;;;;1.83;1.73;;;;;;;-142.70;100.00;60390.16;4955185;28;20023;-80
2023/03/02 09:12:56;;;;;;;1.92;1.77;;;;;;;-142.70;100.00;60390.16;4958614;28;20042;-79
2023/03/02 09:15:21;;;;;;;1.92;1.77;;;;;;;-142.70;100.00;60390.16;4929253;29;20055;-80
2023/03/02 09:17:47;;;;;;;2.00;1.85;;;;;;;-142.70;100.00;60390.16;4923897;29;20131;-80
2023/03/02 09:20:13;;;;;;;3.55;2.13;;;;;;;-142.70;100.00;60390.16;4942241;29;20639;-79
2023/03/02 09:22:39;;;;;;;3.22;2.92;;;;;;;-142.70;100.00;60390.16;4934869;28;20269;-79
2023/03/02 09:25:05;;;;;;;3.42;3.22;;;;;;;-142.70;100.00;60390.16;4967392;29;20035;-80
2023/03/02 09:27:31;;;;;;;2.60;2.40;;;;;;;-142.70;100.00;60390.16;4946033;29;20036;-80
2023/03/02 09:29:56;;;;;;;5.25;2.50;;;;;;;-142.70;100.00;60390.16;4944259;28;20066;-79
2023/03/02 09:32:22;;;;;;;2.75;2.55;;;;;;;-142.70;100.00;60390.16;4939386;28;20031;-77
2023/03/02 09:34:48;;;;;;;2.72;2.53;;;;;;;-142.70;100.00;60390.16;4942722;28;20031;-76
2023/03/02 09:37:13;;;;;;;4.38;2.38;;;;;;;-142.70;100.00;60390.16;4917799;29;20040;-76
2023/03/02 09:39:38;;;;;;;3.35;3.05;;;;;;;-142.70;100.00;60390.16;4908593;29;20044;-80
2023/03/02 09:42:13;;;;;;;3.17;2.70;;;;;;;-142.70;100.00;60390.16;4904602;29;20032;-79
2023/03/02 09:45:01;;;;;;;4.18;3.30;;;;;;;-142.70;100.00;60390.16;4904301;29;20044;-79
2023/03/02 09:47:29;;;;;;;3.47;2.53;;;;;;;-142.70;100.00;60390.16;4895846;29;20828;-80
2023/03/02 09:50:02;;;;;;;4.22;3.03;;;;;;;-142.70;100.00;60390.16;4901486;29;20110;-78
2023/03/02 09:52:35;;;;;;;3.65;3.35;;;;;;;-142.70;100.00;60390.16;4905695;29;20032;-77
2023/03/02 09:55:12;;;;;;;2.38;2.17;;;;;;;-142.70;100.00;60390.16;4905571;29;20786;-79
2023/03/02 09:57:38;;;;;;;2.47;2.28;;;;;;;-142.70;100.00;60390.16;4906028;29;20582;-77
2023/03/02 10:00:14;;;;;;;2.05;1.75;;;;;;;-142.70;100.00;60390.16;4908644;29;20032;-76
2023/03/02 10:02:43;;;;;;;2.50;2.28;;;;;;;-142.70;100.00;60390.16;4900663;29;20032;-79
2023/03/02 10:05:26;;;;;;;2.55;2.35;;;;;;;-142.70;100.00;60390.16;4903069;29;20032;-76
2023/03/02 10:07:52;;;;;;;2.80;2.42;;;;;;;-142.70;100.00;60390.16;4900846;29;20032;-77
2023/03/02 10:10:21;;;;;;;2.47;2.28;;;;;;;-142.70;100.00;60390.16;4908777;29;20028;-78
2023/03/02 10:13:05;;;;;;;2.40;2.20;;;;;;;-142.70;100.00;60390.16;4913246;29;20038;-79
2023/03/02 10:15:37;;;;;;;2.53;2.25;;;;;;;-142.70;100.00;60390.16;4911192;29;20545;-80
2023/03/02 10:18:18;;;;;;;2.13;1.90;;;;;;;-142.70;100.00;60390.16;4906917;29;20024;-78
2023/03/02 10:20:59;;;;;;;1.77;1.67;;;;;;;-142.70;100.00;60390.16;4897417;29;20032;-80
2023/03/02 10:23:39;;;;;;;2.33;2.13;;;;;;;-142.70;100.00;60390.16;4904801;29;20044;-78
2023/03/02 10:26:31;;;;;;;2.63;1.85;;;;;;;-142.70;100.00;60390.16;4903584;29;20043;-79
2023/03/02 10:29:21;;;;;;;1.73;1.63;;;;;;;-142.70;100.00;60390.16;4897794;29;20422;-78
2023/03/02 10:31:51;;;;;;;4.20;1.98;;;;;;;-142.70;100.00;60390.16;4899249;29;20139;-78
2023/03/02 10:34:17;;;;;;;2.20;1.90;;;;;;;-142.70;100.00;60390.16;4903437;29;20050;-78
2023/03/02 10:36:46;;;;;;;1.92;1.73;;;;;;;-142.70;100.00;60390.16;4901004;29;20594;-78
2023/03/02 10:39:14;;;;;;;2.03;1.45;;;;;;;-142.70;100.00;60390.16;4892184;29;20043;-79
2023/03/02 10:42:01;;;;;;;1.25;1.08;;;;;;;-142.70;100.00;60390.16;4901082;29;20039;-78
2023/03/02 10:44:39;;;;;;;1.50;1.40;;;;;;;-142.70;100.00;60390.16;4890314;29;20055;-78
2023/03/02 10:47:07;;;;;;;1.33;1.15;;;;;;;-142.70;100.00;60390.16;4900245;29;20040;-77
2023/03/02 10:49:34;;;;;;;2.30;1.30;;;;;;;-142.70;100.00;60390.16;4894857;29;20047;-78
2023/03/02 10:52:05;;;;;;;1.92;1.55;;;;;;;-142.70;100.00;60390.16;4877833;29;20405;-77
2023/03/02 10:54:33;;;;;;;1.23;0.95;;;;;;;-142.70;100.00;60390.16;4891138;29;20072;-77
2023/03/02 10:57:01;;;;;;;0.68;0.65;;;;;;;-142.70;100.00;60390.16;4896862;29;20031;-77
2023/03/02 10:59:29;;;;;;;1.00;0.82;;;;;;;-142.70;100.00;60390.16;4909603;29;20063;-78
2023/03/02 11:01:59;;;;;;;0.75;0.75;;;;;;;-142.70;100.00;60390.16;4896450;29;20046;-79
2023/03/02 11:04:25;;;;;;;2.25;1.00;;;;;;;-142.70;100.00;60390.16;4899867;29;20111;-76
2023/03/02 11:06:51;;;;;;;1.35;1.25;;;;;;;-142.70;100.00;60390.16;4891530;29;20168;-78
2023/03/02 11:09:17;;;;;;;1.02;0.93;;;;;;;-142.70;100.00;60390.16;4896042;29;20044;-77
2023/03/02 11:11:50;;;;;;;0.90;0.90;;;;;;;-142.70;100.00;60390.16;4888731;29;20060;-77
2023/03/02 11:14:16;;;;;;;1.23;1.00;;;;;;;-142.70;100.00;60390.16;4890902;29;20084;-77